sensor_id;sensor_type;location;lat;lon;timestamp;pressure;altitude;pressure_sealevel;temperature;humidity
22582;BME280;47125;48.542;9.052;2023-03-29T00:04:47;96337.25;;;8.89;nan
22582;BME280;47125;48.542;9.052;2023-03-29T00:14:51;96323.94;;;8.89;nan
22582;BME280;47125;48.542;9.052;2023-03-29T00:24:54;96334.41;;;9.08;nan
22582;BME280;47125;48.542;9.052;2023-03-29T00:34:58;96325.13;;;8.93;nan
22582;BME280;47125;48.542;9.052;2023-03-29T00:45:03;96290.22;;;9.01;nan
22582;BME280;47125;48.542;9.052;2023-03-29T00:55:09;96293.84;;;8.88;nan
22582;BME280;47125;48.542;9.052;2023-03-29T01:05:13;96289.41;;;9.00;nan
22582;BME280;47125;48.542;9.052;2023-03-29T01:15:19;96275.78;;;8.90;nan
22582;BME280;47125;48.542;9.052;2023-03-29T01:25:25;96289.59;;;8.80;nan
22582;BME280;47125;48.542;9.052;2023-03-29T01:35:35;96268.72;;;8.77;nan
22582;BME280;47125;48.542;9.052;2023-03-29T01:45:40;96266.63;;;8.86;nan
22582;BME280;47125;48.542;9.052;2023-03-29T01:55:47;96249.88;;;8.79;nan
22582;BME280;47125;48.542;9.052;2023-03-29T02:05:51;96242.75;;;8.73;nan
22582;BME280;47125;48.542;9.052;2023-03-29T02:15:56;96239.44;;;8.77;nan
22582;BME280;47125;48.542;9.052;2023-03-29T02:26:00;96224.44;;;8.83;nan
22582;BME280;47125;48.542;9.052;2023-03-29T02:36:06;96208.16;;;8.73;nan
22582;BME280;47125;48.542;9.052;2023-03-29T02:46:11;96183.97;;;8.93;nan
22582;BME280;47125;48.542;9.052;2023-03-29T02:56:16;96172.06;;;8.77;nan
22582;BME280;47125;48.542;9.052;2023-03-29T03:06:19;96157.94;;;8.95;nan
22582;BME280;47125;48.542;9.052;2023-03-29T03:16:23;96155.66;;;8.80;nan
22582;BME280;47125;48.542;9.052;2023-03-29T03:26:26;96156.88;;;8.96;nan
22582;BME280;47125;48.542;9.052;2023-03-29T03:36:31;96167.47;;;8.84;nan
22582;BME280;47125;48.542;9.052;2023-03-29T03:46:34;96159.91;;;8.99;nan
22582;BME280;47125;48.542;9.052;2023-03-29T03:56:39;96143.72;;;9.01;nan
22582;BME280;47125;48.542;9.052;2023-03-29T04:06:41;96146.22;;;9.14;nan
22582;BME280;47125;48.542;9.052;2023-03-29T04:16:45;96150.00;;;9.24;nan
22582;BME280;47125;48.542;9.052;2023-03-29T04:26:48;96151.84;;;9.24;nan
22582;BME280;47125;48.542;9.052;2023-03-29T04:36:51;96152.34;;;9.14;nan
22582;BME280;47125;48.542;9.052;2023-03-29T04:46:54;96150.34;;;9.28;nan
22582;BME280;47125;48.542;9.052;2023-03-29T04:56:58;96145.59;;;9.30;nan
22582;BME280;47125;48.542;9.052;2023-03-29T05:07:00;96159.66;;;9.37;nan
22582;BME280;47125;48.542;9.052;2023-03-29T05:17:04;96149.00;;;9.37;nan
22582;BME280;47125;48.542;9.052;2023-03-29T05:27:08;96162.22;;;9.43;nan
22582;BME280;47125;48.542;9.052;2023-03-29T05:37:12;96156.34;;;9.53;nan
22582;BME280;47125;48.542;9.052;2023-03-29T05:47:14;96156.50;;;9.58;nan
22582;BME280;47125;48.542;9.052;2023-03-29T05:57:18;96171.44;;;9.59;nan
22582;BME280;47125;48.542;9.052;2023-03-29T06:07:20;96181.03;;;9.78;nan
22582;BME280;47125;48.542;9.052;2023-03-29T06:17:24;96182.63;;;9.79;nan
22582;BME280;47125;48.542;9.052;2023-03-29T06:27:28;96189.84;;;9.79;nan
22582;BME280;47125;48.542;9.052;2023-03-29T06:37:32;96184.75;;;9.89;nan
22582;BME280;47125;48.542;9.052;2023-03-29T06:47:34;96162.25;;;9.85;nan
22582;BME280;47125;48.542;9.052;2023-03-29T06:57:38;96177.03;;;9.99;nan
22582;BME280;47125;48.542;9.052;2023-03-29T07:07:42;96182.16;;;10.12;nan
22582;BME280;47125;48.542;9.052;2023-03-29T07:17:57;96180.94;;;10.26;nan
22582;BME280;47125;48.542;9.052;2023-03-29T07:28:02;96183.25;;;10.46;nan
22582;BME280;47125;48.542;9.052;2023-03-29T07:38:06;96203.34;;;10.48;nan
22582;BME280;47125;48.542;9.052;2023-03-29T07:48:09;96204.88;;;10.56;nan
22582;BME280;47125;48.542;9.052;2023-03-29T07:58:13;96226.34;;;10.61;nan
22582;BME280;47125;48.542;9.052;2023-03-29T08:08:15;96224.47;;;10.73;nan
22582;BME280;47125;48.542;9.052;2023-03-29T08:18:19;96231.91;;;10.83;nan
22582;BME280;47125;48.542;9.052;2023-03-29T08:28:22;96233.56;;;10.84;nan
22582;BME280;47125;48.542;9.052;2023-03-29T08:38:26;96233.91;;;10.87;nan
22582;BME280;47125;48.542;9.052;2023-03-29T08:48:29;96220.75;;;11.09;nan
22582;BME280;47125;48.542;9.052;2023-03-29T08:58:34;96215.06;;;11.17;nan
22582;BME280;47125;48.542;9.052;2023-03-29T09:08:39;96214.00;;;11.18;nan
22582;BME280;47125;48.542;9.052;2023-03-29T09:18:48;96223.47;;;11.49;nan
22582;BME280;47125;48.542;9.052;2023-03-29T09:28:54;96205.28;;;11.74;nan
22582;BME280;47125;48.542;9.052;2023-03-29T09:39:03;96208.50;;;12.04;nan
22582;BME280;47125;48.542;9.052;2023-03-29T09:49:08;96200.81;;;12.41;nan
22582;BME280;47125;48.542;9.052;2023-03-29T09:59:18;96189.53;;;12.56;nan
22582;BME280;47125;48.542;9.052;2023-03-29T10:09:21;96189.47;;;13.06;nan
22582;BME280;47125;48.542;9.052;2023-03-29T10:19:27;96178.34;;;13.57;nan
22582;BME280;47125;48.542;9.052;2023-03-29T10:29:33;96181.94;;;13.95;nan
22582;BME280;47125;48.542;9.052;2023-03-29T10:39:38;96171.06;;;14.06;nan
22582;BME280;47125;48.542;9.052;2023-03-29T10:49:41;96157.41;;;14.13;nan
22582;BME280;47125;48.542;9.052;2023-03-29T10:59:47;96149.97;;;14.20;nan
22582;BME280;47125;48.542;9.052;2023-03-29T11:09:57;96148.63;;;14.17;nan
22582;BME280;47125;48.542;9.052;2023-03-29T11:20:11;96140.03;;;14.20;nan
22582;BME280;47125;48.542;9.052;2023-03-29T11:30:17;96158.28;;;14.18;nan
22582;BME280;47125;48.542;9.052;2023-03-29T11:40:26;96164.13;;;14.10;nan
22582;BME280;47125;48.542;9.052;2023-03-29T11:50:32;96153.69;;;14.14;nan
22582;BME280;47125;48.542;9.052;2023-03-29T12:00:41;96152.16;;;14.23;nan
22582;BME280;47125;48.542;9.052;2023-03-29T12:10:47;96144.91;;;14.23;nan
22582;BME280;47125;48.542;9.052;2023-03-29T12:20:54;96143.31;;;14.27;nan
22582;BME280;47125;48.542;9.052;2023-03-29T12:31:00;96149.91;;;14.42;nan
22582;BME280;47125;48.542;9.052;2023-03-29T12:41:11;96134.50;;;14.32;nan
22582;BME280;47125;48.542;9.052;2023-03-29T12:51:17;96131.03;;;14.73;nan
22582;BME280;47125;48.542;9.052;2023-03-29T13:01:26;96124.34;;;14.76;nan
22582;BME280;47125;48.542;9.052;2023-03-29T13:11:33;96111.47;;;14.78;nan
22582;BME280;47125;48.542;9.052;2023-03-29T13:21:40;96122.22;;;14.78;nan
22582;BME280;47125;48.542;9.052;2023-03-29T13:31:47;96128.63;;;14.72;nan
22582;BME280;47125;48.542;9.052;2023-03-29T13:42:05;96117.31;;;14.70;nan
22582;BME280;47125;48.542;9.052;2023-03-29T13:52:13;96121.63;;;14.71;nan
22582;BME280;47125;48.542;9.052;2023-03-29T14:02:20;96115.44;;;14.75;nan
22582;BME280;47125;48.542;9.052;2023-03-29T14:12:28;96115.72;;;14.74;nan
22582;BME280;47125;48.542;9.052;2023-03-29T14:22:35;96093.69;;;14.72;nan
22582;BME280;47125;48.542;9.052;2023-03-29T14:32:38;96083.53;;;14.89;nan
22582;BME280;47125;48.542;9.052;2023-03-29T14:42:42;96085.38;;;15.40;nan
22582;BME280;47125;48.542;9.052;2023-03-29T14:52:44;96072.53;;;15.73;nan
22582;BME280;47125;48.542;9.052;2023-03-29T15:02:52;96066.06;;;16.39;nan
22582;BME280;47125;48.542;9.052;2023-03-29T15:12:55;96048.22;;;16.79;nan
22582;BME280;47125;48.542;9.052;2023-03-29T15:22:59;96027.75;;;16.63;nan
22582;BME280;47125;48.542;9.052;2023-03-29T15:33:12;96015.63;;;16.60;nan
22582;BME280;47125;48.542;9.052;2023-03-29T15:43:17;96005.88;;;16.74;nan
22582;BME280;47125;48.542;9.052;2023-03-29T15:53:21;96004.03;;;16.60;nan
22582;BME280;47125;48.542;9.052;2023-03-29T16:03:25;96002.75;;;16.37;nan
22582;BME280;47125;48.542;9.052;2023-03-29T16:13:28;96007.88;;;16.18;nan
22582;BME280;47125;48.542;9.052;2023-03-29T16:23:32;96012.22;;;16.04;nan
22582;BME280;47125;48.542;9.052;2023-03-29T16:33:34;96004.69;;;16.01;nan
22582;BME280;47125;48.542;9.052;2023-03-29T16:43:38;95984.75;;;15.92;nan
22582;BME280;47125;48.542;9.052;2023-03-29T16:53:41;95987.16;;;15.78;nan
22582;BME280;47125;48.542;9.052;2023-03-29T17:03:44;95992.00;;;15.81;nan
22582;BME280;47125;48.542;9.052;2023-03-29T17:13:47;95976.13;;;15.75;nan
22582;BME280;47125;48.542;9.052;2023-03-29T17:23:52;95975.84;;;15.71;nan
22582;BME280;47125;48.542;9.052;2023-03-29T17:33:54;95955.94;;;15.62;nan
22582;BME280;47125;48.542;9.052;2023-03-29T17:43:58;95958.34;;;15.54;nan
22582;BME280;47125;48.542;9.052;2023-03-29T17:54:01;95966.94;;;15.40;nan
22582;BME280;47125;48.542;9.052;2023-03-29T18:04:05;95961.81;;;15.39;nan
22582;BME280;47125;48.542;9.052;2023-03-29T18:14:08;95967.75;;;15.36;nan
22582;BME280;47125;48.542;9.052;2023-03-29T18:24:12;95963.97;;;15.42;nan
22582;BME280;47125;48.542;9.052;2023-03-29T18:34:14;95973.16;;;15.41;nan
22582;BME280;47125;48.542;9.052;2023-03-29T18:44:18;95977.97;;;15.39;nan
22582;BME280;47125;48.542;9.052;2023-03-29T18:54:21;95968.53;;;15.41;nan
22582;BME280;47125;48.542;9.052;2023-03-29T19:04:25;95940.56;;;15.42;nan
22582;BME280;47125;48.542;9.052;2023-03-29T19:14:29;95947.56;;;15.43;nan
22582;BME280;47125;48.542;9.052;2023-03-29T19:24:33;95972.56;;;15.24;nan
22582;BME280;47125;48.542;9.052;2023-03-29T19:34:35;95962.38;;;15.41;nan
22582;BME280;47125;48.542;9.052;2023-03-29T19:44:39;95949.16;;;15.44;nan
22582;BME280;47125;48.542;9.052;2023-03-29T19:54:42;95930.59;;;15.33;nan
22582;BME280;47125;48.542;9.052;2023-03-29T20:04:45;95927.34;;;15.21;nan
22582;BME280;47125;48.542;9.052;2023-03-29T20:14:48;95911.22;;;15.21;nan
22582;BME280;47125;48.542;9.052;2023-03-29T20:24:52;95905.03;;;15.20;nan
22582;BME280;47125;48.542;9.052;2023-03-29T20:34:54;95892.94;;;15.23;nan
22582;BME280;47125;48.542;9.052;2023-03-29T20:44:58;95882.72;;;15.25;nan
22582;BME280;47125;48.542;9.052;2023-03-29T20:55:01;95879.75;;;15.26;nan
22582;BME280;47125;48.542;9.052;2023-03-29T21:05:09;95868.16;;;15.21;nan
22582;BME280;47125;48.542;9.052;2023-03-29T21:15:11;95876.50;;;15.14;nan
22582;BME280;47125;48.542;9.052;2023-03-29T21:25:15;95858.50;;;15.20;nan
22582;BME280;47125;48.542;9.052;2023-03-29T21:35:18;95850.16;;;15.21;nan
22582;BME280;47125;48.542;9.052;2023-03-29T21:45:22;95844.75;;;15.11;nan
22582;BME280;47125;48.542;9.052;2023-03-29T21:55:25;95842.06;;;15.11;nan
22582;BME280;47125;48.542;9.052;2023-03-29T22:05:28;95835.38;;;15.14;nan
22582;BME280;47125;48.542;9.052;2023-03-29T22:15:31;95828.63;;;15.06;nan
22582;BME280;47125;48.542;9.052;2023-03-29T22:25:37;95830.25;;;15.12;nan
22582;BME280;47125;48.542;9.052;2023-03-29T22:35:39;95816.00;;;15.17;nan
22582;BME280;47125;48.542;9.052;2023-03-29T22:45:43;95821.63;;;15.15;nan
22582;BME280;47125;48.542;9.052;2023-03-29T22:55:46;95813.84;;;15.14;nan
22582;BME280;47125;48.542;9.052;2023-03-29T23:05:50;95815.19;;;15.16;nan
22582;BME280;47125;48.542;9.052;2023-03-29T23:15:53;95814.41;;;15.11;nan
22582;BME280;47125;48.542;9.052;2023-03-29T23:25:57;95822.72;;;15.14;nan
22582;BME280;47125;48.542;9.052;2023-03-29T23:36:00;95816.28;;;15.10;nan
22582;BME280;47125;48.542;9.052;2023-03-29T23:46:05;95836.69;;;15.11;nan
22582;BME280;47125;48.542;9.052;2023-03-29T23:56:08;95807.94;;;15.02;nan
